Time;durP1;ratioP1;P1;durP2;ratioP2;P2;SDS_P1;SDS_P2;PMS_P1;PMS_P2;Temp;Humidity;BMP_temperature;BMP_pressure;BME280_temperature;BME280_humidity;BME280_pressure;Samples;Min_cycle;Max_cycle;Signal;HPM_P1;HPM_P2
2023/10/04 00:00:21;;;;;;;6.55;3.00;;;;;;;25.79;55.81;100490.31;5091862;28;20021;-79
2023/10/04 00:02:49;;;;;;;6.80;3.22;;;;;;;25.79;55.96;100479.59;5091957;28;20016;-78
2023/10/04 00:05:16;;;;;;;6.88;3.08;;;;;;;25.79;55.91;100474.25;5092317;28;20068;-78
2023/10/04 00:07:44;;;;;;;5.68;2.90;;;;;;;25.79;56.04;100476.94;5091874;28;20043;-80
2023/10/04 00:10:10;;;;;;;5.38;3.00;;;;;;;25.78;56.11;100472.56;5092059;28;20024;-79
2023/10/04 00:12:36;;;;;;;6.22;3.00;;;;;;;25.76;56.10;100467.28;5091974;28;20503;-78
2023/10/04 00:15:02;;;;;;;6.65;3.03;;;;;;;25.76;55.64;100475.31;5091857;28;20036;-80
2023/10/04 00:17:27;;;;;;;5.18;2.70;;;;;;;25.76;56.04;100474.47;5091841;28;20070;-81
2023/10/04 00:19:53;;;;;;;5.88;2.88;;;;;;;25.76;56.05;100479.81;5091894;28;20056;-79
2023/10/04 00:22:23;;;;;;;6.13;3.00;;;;;;;25.74;56.03;100483.47;5091924;28;20032;-78
2023/10/04 00:24:51;;;;;;;5.35;2.75;;;;;;;25.73;55.78;100481.72;5092076;28;20028;-79
2023/10/04 00:27:17;;;;;;;6.43;3.05;;;;;;;25.73;55.81;100480.88;5091976;28;20028;-77
2023/10/04 00:29:44;;;;;;;7.28;3.00;;;;;;;25.76;55.86;100485.16;5091496;28;20357;-78
2023/10/04 00:32:09;;;;;;;5.20;2.88;;;;;;;25.72;55.74;100485.34;5091930;28;20085;-79
2023/10/04 00:34:35;;;;;;;5.95;2.72;;;;;;;25.73;55.62;100481.72;5091886;28;20032;-79
2023/10/04 00:37:00;;;;;;;5.55;2.70;;;;;;;25.71;55.63;100483.66;5091843;28;20103;-79
2023/10/04 00:39:25;;;;;;;5.30;2.60;;;;;;;25.71;55.75;100475.63;5091628;28;20103;-77
2023/10/04 00:41:55;;;;;;;5.10;2.58;;;;;;;25.69;55.89;100474.88;5091783;28;20481;-77
2023/10/04 00:44:21;;;;;;;5.97;2.70;;;;;;;25.69;55.89;100480.22;5093145;28;20028;-78
2023/10/04 00:46:46;;;;;;;6.00;2.83;;;;;;;25.68;55.98;100483.00;5095624;28;20020;-78
2023/10/04 00:49:12;;;;;;;5.88;2.42;;;;;;;25.68;55.63;100483.88;5095467;28;20397;-78
2023/10/04 00:51:38;;;;;;;5.65;2.67;;;;;;;25.67;55.61;100476.78;5095422;28;20024;-78
2023/10/04 00:54:07;;;;;;;5.15;2.63;;;;;;;25.65;55.58;100478.69;5095302;28;20035;-78
2023/10/04 00:56:35;;;;;;;5.10;2.90;;;;;;;25.66;56.02;100476.91;5095440;28;20024;-78
2023/10/04 00:59:03;;;;;;;5.25;2.70;;;;;;;25.66;55.76;100467.06;5094558;28;20019;-78
2023/10/04 01:01:31;;;;;;;5.20;2.97;;;;;;;25.65;55.80;100473.34;5095318;28;20073;-78
2023/10/04 01:03:56;;;;;;;6.35;2.75;;;;;;;25.65;55.96;100457.31;5094864;28;20055;-77
2023/10/04 01:06:22;;;;;;;6.53;2.65;;;;;;;25.63;55.86;100469.06;5095099;28;20066;-79
2023/10/04 01:08:48;;;;;;;4.80;2.53;;;;;;;25.64;55.69;100466.31;5095203;28;20030;-78
2023/10/04 01:11:13;;;;;;;5.75;2.38;;;;;;;25.65;55.65;100457.31;5094983;28;20039;-79
2023/10/04 01:13:40;;;;;;;6.20;2.60;;;;;;;25.64;55.43;100455.63;5094616;28;20024;-78
2023/10/04 01:16:09;;;;;;;5.22;2.30;;;;;;;25.61;55.43;100461.13;5095078;28;20028;-78
2023/10/04 01:18:36;;;;;;;5.03;2.63;;;;;;;25.62;55.44;100457.53;5094654;28;20035;-77
2023/10/04 01:21:01;;;;;;;5.15;2.28;;;;;;;25.62;55.44;100445.97;5094974;28;20058;-78
2023/10/04 01:23:28;;;;;;;4.97;2.20;;;;;;;25.60;55.43;100454.97;5094872;28;20048;-78
2023/10/04 01:25:54;;;;;;;4.97;2.45;;;;;;;25.62;55.72;100446.84;5094676;28;20054;-79
2023/10/04 01:28:27;;;;;;;5.22;2.30;;;;;;;25.60;55.49;100438.06;5094254;28;20032;-78
2023/10/04 01:30:54;;;;;;;4.68;2.38;;;;;;;25.59;55.77;100436.34;5094734;28;20043;-78
2023/10/04 01:33:20;;;;;;;5.43;2.50;;;;;;;25.61;55.32;100431.75;5094571;28;20430;-78
2023/10/04 01:35:51;;;;;;;4.53;2.10;;;;;;;25.61;55.36;100434.41;5094362;28;20020;-78
2023/10/04 01:38:17;;;;;;;5.35;2.40;;;;;;;25.57;55.51;100427.59;5094400;28;20040;-78
2023/10/04 01:40:47;;;;;;;4.60;2.20;;;;;;;25.60;55.36;100422.03;5094494;28;20028;-78
2023/10/04 01:43:16;;;;;;;5.13;2.05;;;;;;;25.59;55.56;100425.66;5094040;28;20113;-78
2023/10/04 01:45:44;;;;;;;5.80;2.35;;;;;;;25.63;55.37;100424.50;5094342;28;20096;-78
2023/10/04 01:48:09;;;;;;;4.20;2.10;;;;;;;25.59;55.43;100420.31;5094146;28;20016;-78
2023/10/04 01:50:36;;;;;;;6.22;2.20;;;;;;;25.58;55.25;100418.59;5094039;28;20134;-78
2023/10/04 01:53:01;;;;;;;4.50;2.35;;;;;;;25.59;55.22;100417.63;5094107;28;20043;-77
2023/10/04 01:55:26;;;;;;;4.88;1.98;;;;;;;25.60;55.05;100416.66;5093569;28;20017;-78
2023/10/04 01:57:52;;;;;;;4.45;2.20;;;;;;;25.58;55.37;100407.91;5093614;28;20102;-79
2023/10/04 02:00:18;;;;;;;4.22;2.40;;;;;;;25.56;55.12;100410.69;5094119;28;20515;-78
2023/10/04 02:02:44;;;;;;;4.93;2.22;;;;;;;25.55;55.55;100408.97;5093747;28;20082;-78
2023/10/04 02:05:10;;;;;;;4.20;2.10;;;;;;;25.55;55.00;100403.63;5092410;28;20043;-78
2023/10/04 02:07:39;;;;;;;5.38;2.20;;;;;;;25.55;55.26;100400.94;5094059;28;20023;-77
2023/10/04 02:10:08;;;;;;;4.63;2.08;;;;;;;25.54;55.23;100401.91;5093897;28;20485;-78
2023/10/04 02:12:33;;;;;;;4.75;1.98;;;;;;;25.58;55.31;100399.91;5093406;28;20419;-78
2023/10/04 02:14:59;;;;;;;4.25;1.90;;;;;;;25.57;55.32;100395.50;5092288;28;20037;-77
2023/10/04 02:17:24;;;;;;;4.78;1.92;;;;;;;25.55;55.22;100400.09;5093586;28;20023;-77
2023/10/04 02:19:49;;;;;;;4.32;2.00;;;;;;;25.53;55.28;100393.97;5093419;28;20103;-77
2023/10/04 02:22:15;;;;;;;3.97;2.00;;;;;;;25.54;54.87;100395.69;5093746;28;20430;-78
2023/10/04 02:24:41;;;;;;;4.93;1.95;;;;;;;25.53;55.18;100393.97;5093790;28;20020;-78
2023/10/04 02:27:09;;;;;;;3.97;1.70;;;;;;;25.51;54.80;100391.38;5093238;28;20028;-77
2023/10/04 02:29:38;;;;;;;5.43;2.15;;;;;;;25.53;55.15;100393.97;5093608;28;20017;-77
2023/10/04 02:32:09;;;;;;;5.80;2.10;;;;;;;25.53;54.91;100383.28;5091935;28;20447;-77
2023/10/04 02:34:41;;;;;;;4.38;2.13;;;;;;;25.55;54.67;100381.38;5093261;28;20024;-78
2023/10/04 02:37:07;;;;;;;5.40;1.95;;;;;;;25.52;55.15;100384.22;5093236;28;20097;-78
2023/10/04 02:39:37;;;;;;;4.13;2.30;;;;;;;25.52;54.99;100381.56;5092768;28;20119;-78
2023/10/04 02:42:09;;;;;;;3.50;2.00;;;;;;;25.51;54.75;100382.53;5093316;28;20028;-78
2023/10/04 02:44:34;;;;;;;4.70;2.15;;;;;;;25.48;54.70;100376.41;5093308;28;20034;-77
2023/10/04 02:47:01;;;;;;;4.05;1.48;;;;;;;25.51;54.92;100380.69;5091943;28;20102;-78
2023/10/04 02:49:26;;;;;;;7.13;2.28;;;;;;;25.51;55.02;100374.50;5092985;28;20069;-78
2023/10/04 02:51:52;;;;;;;4.68;2.00;;;;;;;25.51;54.81;100374.50;5091538;28;20027;-77
2023/10/04 02:54:17;;;;;;;4.07;1.70;;;;;;;25.47;54.68;100380.03;5092810;28;20044;-80
2023/10/04 02:56:45;;;;;;;4.30;1.70;;;;;;;25.48;54.65;100379.06;5092938;28;20075;-77
2023/10/04 02:59:12;;;;;;;5.20;2.40;;;;;;;25.50;54.50;100375.44;5092899;28;20499;-77
2023/10/04 03:01:38;;;;;;;5.25;2.50;;;;;;;25.48;54.78;100381.75;5092957;28;20036;-78
2023/10/04 03:04:03;;;;;;;4.10;1.90;;;;;;;25.48;55.07;100380.91;5104921;28;20495;-78
2023/10/04 03:06:31;;;;;;;5.78;2.58;;;;;;;25.50;54.80;100372.78;5096032;28;20032;-77
2023/10/04 03:08:56;;;;;;;3.78;1.70;;;;;;;25.45;54.50;100376.63;5092148;28;20027;-78
2023/10/04 03:11:21;;;;;;;5.40;2.20;;;;;;;25.46;54.37;100382.81;5091615;28;20028;-78
2023/10/04 03:13:47;;;;;;;5.43;2.40;;;;;;;25.44;54.39;100374.91;5092608;28;20441;-79
2023/10/04 03:16:12;;;;;;;4.82;2.00;;;;;;;25.45;54.70;100381.09;5092532;28;20028;-78
2023/10/04 03:18:39;;;;;;;4.95;1.95;;;;;;;25.43;54.68;100378.53;5092754;28;20396;-79
2023/10/04 03:23:40;;;;;;;5.93;1.88;;;;;;;25.45;54.50;100384.63;5092476;28;20032;-78
2023/10/04 03:26:06;;;;;;;6.57;2.42;;;;;;;25.43;54.45;100378.53;5092458;28;20028;-77
2023/10/04 03:28:33;;;;;;;4.78;2.15;;;;;;;25.44;54.31;100388.28;5092565;28;20055;-79
2023/10/04 03:31:03;;;;;;;4.22;1.90;;;;;;;25.45;54.21;100392.66;5092417;28;20028;-77
2023/10/04 03:33:31;;;;;;;4.38;2.10;;;;;;;25.44;54.57;100398.97;5092449;28;20032;-78
2023/10/04 03:35:58;;;;;;;4.13;1.77;;;;;;;25.43;54.11;100394.56;5092307;28;20474;-78
2023/10/04 03:38:25;;;;;;;4.35;1.88;;;;;;;25.41;54.25;100396.47;5091475;28;20039;-78
2023/10/04 03:40:51;;;;;;;4.85;1.90;;;;;;;25.42;54.23;100400.84;5092281;28;20028;-77
2023/10/04 03:43:17;;;;;;;3.70;1.75;;;;;;;25.41;54.42;100401.81;5091821;28;20061;-78
2023/10/04 03:45:43;;;;;;;4.45;1.70;;;;;;;25.42;54.49;100408.88;5092308;28;20028;-77
2023/10/04 03:48:15;;;;;;;5.63;2.22;;;;;;;25.40;54.23;100396.56;5092282;28;20027;-77
2023/10/04 03:50:45;;;;;;;5.43;2.08;;;;;;;25.38;54.24;100396.69;5092388;28;20044;-78
2023/10/04 03:53:10;;;;;;;5.35;1.83;;;;;;;25.41;54.34;100401.81;5091820;28;20442;-78
2023/10/04 03:55:36;;;;;;;5.55;2.22;;;;;;;25.42;53.97;100395.50;5090934;28;20016;-78
2023/10/04 03:58:04;;;;;;;3.78;1.80;;;;;;;25.42;54.23;100398.19;5092186;28;20456;-78
2023/10/04 04:00:33;;;;;;;4.72;1.90;;;;;;;25.41;54.08;100404.50;5092090;28;20450;-77
2023/10/04 04:02:59;;;;;;;4.32;1.70;;;;;;;25.42;53.92;100403.53;5092019;28;20521;-77
2023/10/04 04:05:25;;;;;;;4.35;1.95;;;;;;;25.41;53.89;100407.16;5091967;28;20016;-77
2023/10/04 04:07:52;;;;;;;3.28;1.52;;;;;;;25.41;54.06;100409.84;5091693;28;20119;-78
2023/10/04 04:10:19;;;;;;;4.88;1.92;;;;;;;25.40;54.16;100410.78;5092284;28;20387;-78
2023/10/04 04:12:48;;;;;;;5.95;1.90;;;;;;;25.38;54.08;100409.19;5092198;28;20587;-79
2023/10/04 04:15:14;;;;;;;5.05;1.88;;;;;;;25.36;53.89;100417.28;5092016;28;20490;-77
2023/10/04 04:17:41;;;;;;;3.60;1.50;;;;;;;25.37;54.31;100419.00;5092114;28;20484;-78
2023/10/04 04:20:14;;;;;;;4.38;1.88;;;;;;;25.36;53.84;100429.81;5095027;28;20024;-79
2023/10/04 04:22:50;;;;;;;3.83;1.70;;;;;;;25.32;53.86;100424.66;5095633;28;20024;-78
2023/10/04 04:25:18;;;;;;;5.18;1.85;;;;;;;25.34;53.92;100433.41;5095940;28;20122;-78
2023/10/04 04:27:44;;;;;;;4.72;1.85;;;;;;;25.37;54.07;100436.84;5095719;28;20024;-77
2023/10/04 04:30:16;;;;;;;4.70;2.22;;;;;;;25.33;54.15;100445.06;5095814;28;20107;-78
2023/10/04 04:32:52;;;;;;;4.18;1.90;;;;;;;25.33;54.05;100444.22;5095919;28;20056;-77
2023/10/04 04:36:09;;;;;;;4.15;2.03;;;;;;;25.30;53.82;100447.06;5095713;28;20016;-78
2023/10/04 04:38:14;;;;;;;5.00;1.85;;;;;;;25.29;53.65;100440.88;5091642;28;20069;-79
2023/10/04 04:40:44;;;;;;;4.05;1.88;;;;;;;25.27;54.17;100437.44;5095717;28;20491;-78
2023/10/04 04:45:52;;;;;;;4.13;1.88;;;;;;;25.28;54.06;100427.63;5095424;28;20036;-79
2023/10/04 04:48:24;;;;;;;4.10;1.58;;;;;;;25.26;53.95;100419.69;5094199;28;20024;-78
2023/10/04 04:50:52;;;;;;;5.93;1.88;;;;;;;25.28;53.69;100424.94;5095246;28;20028;-77
2023/10/04 04:53:20;;;;;;;5.20;2.22;;;;;;;25.29;53.62;100424.00;5095513;28;20058;-80
2023/10/04 04:55:46;;;;;;;3.80;1.58;;;;;;;25.30;53.48;100428.38;5095457;28;20031;-78
2023/10/04 04:58:13;;;;;;;4.40;2.05;;;;;;;25.28;53.81;100433.81;5095324;28;20056;-77
2023/10/04 05:00:42;;;;;;;3.90;1.95;;;;;;;25.29;53.82;100432.00;5095427;28;20051;-77
2023/10/04 05:03:11;;;;;;;3.78;1.42;;;;;;;25.28;53.83;100432.97;5095171;28;20052;-77
2023/10/04 05:05:39;;;;;;;3.72;1.83;;;;;;;25.26;53.44;100434.84;5096280;28;20034;-77
2023/10/04 05:08:05;;;;;;;6.63;2.15;;;;;;;25.27;53.81;100433.94;5115557;28;20023;-78
2023/10/04 05:10:37;;;;;;;4.75;1.90;;;;;;;25.26;53.36;100430.38;5115437;28;20396;-77
2023/10/04 05:13:03;;;;;;;5.70;1.90;;;;;;;25.27;53.43;100436.59;5115462;28;20107;-78
2023/10/04 05:15:32;;;;;;;3.75;1.67;;;;;;;25.24;53.41;100423.41;5105107;28;20086;-78
2023/10/04 05:18:00;;;;;;;4.82;1.95;;;;;;;25.23;53.50;100435.06;5094587;28;20028;-77
2023/10/04 05:20:31;;;;;;;3.42;1.70;;;;;;;25.21;53.42;100429.81;5092756;28;20024;-77
2023/10/04 05:23:00;;;;;;;4.13;1.52;;;;;;;25.23;53.48;100425.22;5094727;28;20093;-77
2023/10/04 05:25:27;;;;;;;4.43;1.63;;;;;;;25.24;53.65;100436.78;5094624;28;20012;-78
2023/10/04 05:28:00;;;;;;;4.05;1.55;;;;;;;25.16;53.46;100430.13;5094383;28;20050;-78
2023/10/04 05:30:26;;;;;;;5.30;1.92;;;;;;;25.19;53.86;100435.25;5093082;28;20065;-77
2023/10/04 05:32:51;;;;;;;4.85;1.85;;;;;;;25.19;53.39;100429.91;5094464;28;20024;-77
2023/10/04 05:35:17;;;;;;;4.18;1.85;;;;;;;25.20;53.72;100437.00;5092817;28;20111;-77
2023/10/04 05:37:44;;;;;;;4.18;1.75;;;;;;;25.20;53.61;100431.66;5094318;28;20020;-78
2023/10/04 05:40:16;;;;;;;3.88;2.08;;;;;;;25.20;53.35;100437.00;5094020;28;20028;-77
2023/10/04 05:42:46;;;;;;;3.42;1.70;;;;;;;25.24;53.20;100447.47;5093885;28;20400;-77
2023/10/04 05:45:12;;;;;;;5.10;1.70;;;;;;;25.22;53.55;100434.19;5094171;28;20035;-78
2023/10/04 05:47:38;;;;;;;5.05;1.75;;;;;;;25.19;53.48;100440.59;5094249;28;20028;-77
2023/10/04 05:50:05;;;;;;;4.05;1.90;;;;;;;25.15;53.39;100439.09;5092315;28;20031;-79
2023/10/04 05:52:32;;;;;;;6.60;2.10;;;;;;;25.17;53.16;100442.50;5093953;28;20052;-77
2023/10/04 05:54:58;;;;;;;6.75;2.00;;;;;;;25.13;53.61;100445.47;5094181;28;20525;-78
2023/10/04 05:57:24;;;;;;;4.88;2.22;;;;;;;25.14;53.30;100440.03;5093889;28;20095;-79
2023/10/04 05:59:49;;;;;;;6.00;1.80;;;;;;;25.13;53.48;100449.00;5094075;28;20557;-78
2023/10/04 06:02:15;;;;;;;5.38;1.75;;;;;;;25.15;53.37;100454.25;5093907;28;20021;-77
2023/10/04 06:04:42;;;;;;;4.22;1.90;;;;;;;25.14;53.57;100453.38;5093121;28;20072;-77
2023/10/04 06:07:08;;;;;;;5.40;2.20;;;;;;;25.12;53.14;100455.28;5093788;28;20020;-78
2023/10/04 06:09:35;;;;;;;4.15;1.77;;;;;;;25.12;53.13;100455.28;5093867;28;20028;-77
2023/10/04 06:12:02;;;;;;;5.88;2.50;;;;;;;25.13;53.39;100467.69;5093991;28;20399;-77
2023/10/04 06:14:27;;;;;;;6.50;2.10;;;;;;;25.11;53.54;100474.94;5093684;28;20016;-77
2023/10/04 06:16:53;;;;;;;4.32;1.90;;;;;;;25.11;53.22;100469.59;5093241;28;20024;-77
2023/10/04 06:19:24;;;;;;;5.28;2.22;;;;;;;25.13;53.34;100467.69;5093639;28;20061;-77
2023/10/04 06:21:52;;;;;;;4.22;1.70;;;;;;;25.13;53.40;100467.69;5093801;28;20031;-77
2023/10/04 06:24:17;;;;;;;5.03;1.90;;;;;;;25.12;53.50;100470.47;5093728;28;20047;-77
2023/10/04 06:26:43;;;;;;;4.88;2.00;;;;;;;25.11;53.19;100474.94;5091974;28;20059;-78
2023/10/04 06:29:08;;;;;;;4.90;1.90;;;;;;;25.10;53.20;100470.56;5093412;28;20032;-78
2023/10/04 06:31:33;;;;;;;5.13;2.00;;;;;;;25.11;53.33;100469.59;5092848;28;20024;-71
2023/10/04 06:34:01;;;;;;;5.53;2.45;;;;;;;25.09;53.06;100476.88;5093280;28;20035;-71
2023/10/04 06:36:26;;;;;;;5.22;2.17;;;;;;;25.08;53.30;100483.13;5092982;28;20052;-71
2023/10/04 06:38:52;;;;;;;6.90;2.00;;;;;;;25.10;53.52;100483.91;5092906;28;20102;-71
2023/10/04 06:41:24;;;;;;;6.57;2.00;;;;;;;25.06;53.71;100493.06;5092595;28;20392;-71
2023/10/04 06:43:49;;;;;;;5.25;1.92;;;;;;;25.07;53.68;100494.78;5093168;28;20032;-71
2023/10/04 06:46:14;;;;;;;5.55;2.30;;;;;;;25.09;53.63;100492.88;5092406;28;20042;-72
2023/10/04 06:48:40;;;;;;;6.43;1.92;;;;;;;25.09;53.46;100492.88;5092796;28;20111;-71
2023/10/04 06:51:06;;;;;;;5.18;1.98;;;;;;;25.09;53.36;100498.22;5092914;28;20383;-71
2023/10/04 06:53:33;;;;;;;5.95;1.95;;;;;;;25.06;53.58;100501.06;5092852;28;20119;-72
2023/10/04 06:55:59;;;;;;;6.60;2.05;;;;;;;25.06;53.68;100509.97;5092908;28;20396;-71
2023/10/04 06:58:25;;;;;;;5.07;2.10;;;;;;;25.08;53.18;100507.16;5092616;28;20045;-71
2023/10/04 07:00:50;;;;;;;5.22;2.50;;;;;;;25.05;53.62;100502.88;5092416;28;20064;-72
2023/10/04 07:03:16;;;;;;;6.88;2.35;;;;;;;25.06;53.45;100498.41;5098257;28;20031;-71
2023/10/04 07:05:42;;;;;;;7.13;3.05;;;;;;;25.05;53.52;100510.03;5107887;28;20024;-70
2023/10/04 07:08:16;;;;;;;5.85;2.35;;;;;;;25.06;53.49;100509.09;5091259;28;20073;-71
2023/10/04 07:10:43;;;;;;;4.43;1.92;;;;;;;25.07;53.38;100502.78;5092756;28;20031;-71
2023/10/04 07:13:09;;;;;;;5.32;1.80;;;;;;;25.08;53.50;100504.50;5092451;28;20103;-72
2023/10/04 07:15:35;;;;;;;5.35;1.80;;;;;;;25.04;53.51;100505.66;5092059;28;20051;-72
2023/10/04 07:18:02;;;;;;;5.50;2.13;;;;;;;25.04;53.37;100505.66;5092185;28;20433;-70
2023/10/04 07:20:27;;;;;;;4.93;2.15;;;;;;;25.03;53.69;100502.13;5092340;28;20392;-70
2023/10/04 07:22:58;;;;;;;5.28;2.10;;;;;;;25.06;53.64;100503.75;5090944;28;20024;-71
2023/10/04 07:25:28;;;;;;;5.80;2.00;;;;;;;25.03;53.45;100491.44;5092470;28;20020;-72
2023/10/04 07:27:55;;;;;;;6.28;2.60;;;;;;;25.02;53.21;100491.53;5092309;28;20020;-71
2023/10/04 07:30:22;;;;;;;5.18;2.00;;;;;;;25.00;53.45;100486.31;5091913;28;20099;-70
2023/10/04 07:32:48;;;;;;;7.32;2.60;;;;;;;24.98;53.25;100476.69;5092294;28;20031;-72
2023/10/04 07:35:20;;;;;;;5.18;1.95;;;;;;;24.98;53.30;100468.66;5092276;28;20024;-72
2023/10/04 07:37:46;;;;;;;4.38;1.80;;;;;;;24.97;53.78;100466.94;5092165;28;20472;-72
2023/10/04 07:40:14;;;;;;;6.15;1.80;;;;;;;24.96;53.63;100459.88;5092218;28;20073;-72
2023/10/04 07:42:41;;;;;;;5.82;2.58;;;;;;;24.94;53.60;100473.34;5092272;28;20039;-72
2023/10/04 07:45:08;;;;;;;4.75;2.00;;;;;;;24.94;53.72;100487.53;5091317;28;20020;-72
2023/10/04 07:47:36;;;;;;;3.90;1.75;;;;;;;24.95;53.34;100485.72;5090781;28;20078;-71
2023/10/04 07:50:07;;;;;;;7.13;2.30;;;;;;;24.94;53.20;100490.19;5092405;28;20024;-72
2023/10/04 07:52:33;;;;;;;4.00;1.77;;;;;;;24.94;53.49;100495.53;5091826;28;20025;-71
2023/10/04 07:54:59;;;;;;;5.70;2.17;;;;;;;24.94;53.32;100494.69;5093615;28;20102;-72
2023/10/04 07:57:26;;;;;;;4.72;2.05;;;;;;;24.93;53.31;100504.50;5096412;28;20043;-71
2023/10/04 07:59:51;;;;;;;4.50;1.63;;;;;;;24.94;53.43;100510.72;5095994;28;20043;-71
2023/10/04 08:02:17;;;;;;;5.30;2.00;;;;;;;24.94;53.57;100506.22;5096253;28;20063;-72
2023/10/04 08:04:45;;;;;;;5.15;2.00;;;;;;;24.93;53.27;100504.50;5096131;28;20127;-71
2023/10/04 08:07:12;;;;;;;4.75;2.03;;;;;;;24.93;53.28;100499.16;5095812;28;20028;-68
2023/10/04 08:09:38;;;;;;;5.35;2.15;;;;;;;24.91;53.47;100509.09;5096034;28;20085;-71
2023/10/04 08:12:07;;;;;;;7.75;2.38;;;;;;;24.94;53.31;100505.38;5096076;28;20112;-72
2023/10/04 08:14:33;;;;;;;5.32;2.20;;;;;;;24.94;53.27;100510.72;5095709;28;20028;-71
2023/10/04 08:16:58;;;;;;;3.78;1.80;;;;;;;24.94;53.38;100516.91;5095765;28;20028;-72
2023/10/04 08:19:24;;;;;;;4.80;1.98;;;;;;;24.96;53.14;100510.59;5095948;28;20016;-71
2023/10/04 08:21:49;;;;;;;7.38;2.33;;;;;;;24.97;53.01;100502.50;5095861;28;20440;-71
2023/10/04 08:24:15;;;;;;;4.80;1.77;;;;;;;24.96;53.61;100513.28;5095913;28;20395;-70
2023/10/04 08:26:41;;;;;;;4.10;1.77;;;;;;;24.94;53.08;100510.72;5095714;28;20468;-71
2023/10/04 08:29:06;;;;;;;5.38;1.92;;;;;;;24.96;53.29;100507.94;5093986;28;20067;-71
2023/10/04 08:31:33;;;;;;;7.00;2.38;;;;;;;24.95;53.42;100499.09;5095336;28;20031;-71
2023/10/04 08:33:58;;;;;;;5.32;2.22;;;;;;;24.96;53.27;100502.59;5095427;28;20430;-72
2023/10/04 08:36:24;;;;;;;4.22;1.80;;;;;;;24.96;52.95;100502.59;5095297;28;20028;-72
2023/10/04 08:38:49;;;;;;;6.75;2.03;;;;;;;24.95;53.15;100515.09;5095471;28;20028;-72
2023/10/04 08:41:16;;;;;;;4.70;2.28;;;;;;;24.93;53.21;100509.84;5095317;28;20032;-71
2023/10/04 08:43:44;;;;;;;4.25;1.67;;;;;;;24.92;53.21;100508.13;5094825;28;20024;-71
2023/10/04 08:46:10;;;;;;;8.38;2.30;;;;;;;24.93;53.15;100507.19;5095338;28;20032;-72
2023/10/04 08:48:36;;;;;;;5.80;2.40;;;;;;;24.94;53.34;100514.22;5095348;28;20090;-71
2023/10/04 08:51:17;;;;;;;5.35;2.10;;;;;;;24.96;53.06;100513.28;5095191;28;20048;-73
2023/10/04 08:54:09;;;;;;;3.95;1.75;;;;;;;24.97;53.13;100506.97;5094863;28;20030;-71
2023/10/04 08:56:44;;;;;;;3.97;2.00;;;;;;;24.94;53.07;100506.22;5094702;28;20031;-70
2023/10/04 08:59:11;;;;;;;5.20;2.30;;;;;;;24.93;53.31;100504.50;5094970;28;20089;-72
2023/10/04 09:01:39;;;;;;;7.43;2.17;;;;;;;24.96;52.85;100503.47;5104096;28;20479;-71
2023/10/04 09:04:06;;;;;;;5.07;1.85;;;;;;;24.96;53.03;100507.94;5115162;28;20044;-72
2023/10/04 09:06:31;;;;;;;5.60;2.10;;;;;;;24.98;52.88;100498.03;5104767;28;20020;-71
2023/10/04 09:08:57;;;;;;;4.90;2.13;;;;;;;25.00;52.61;100496.13;5094716;28;20047;-71
2023/10/04 09:11:23;;;;;;;4.38;2.20;;;;;;;25.01;53.08;100489.81;5094506;28;20024;-71
2023/10/04 09:13:52;;;;;;;5.47;1.95;;;;;;;25.04;52.64;100494.97;5094586;28;20032;-72
2023/10/04 09:16:28;;;;;;;5.90;1.83;;;;;;;25.05;52.57;100494.03;5094694;28;20452;-72
2023/10/04 09:19:24;;;;;;;4.40;2.17;;;;;;;25.10;52.54;100485.72;5094598;28;20073;-71
2023/10/04 09:21:52;;;;;;;4.93;2.15;;;;;;;25.10;52.46;100481.25;5085861;28;20064;-71
2023/10/04 09:24:18;;;;;;;3.92;2.08;;;;;;;25.11;52.37;100485.63;5093437;28;20046;-71
2023/10/04 09:26:54;;;;;;;4.88;2.10;;;;;;;25.15;52.31;100480.94;5094543;28;20438;-70
2023/10/04 09:29:28;;;;;;;6.78;2.10;;;;;;;25.13;52.33;100473.03;5094215;28;20031;-72
2023/10/04 09:31:55;;;;;;;6.35;2.08;;;;;;;25.15;52.41;100476.47;5094548;28;20411;-72
2023/10/04 09:34:23;;;;;;;4.25;2.00;;;;;;;25.14;52.33;100474.75;5082194;28;20115;-71
2023/10/04 09:36:51;;;;;;;4.95;2.03;;;;;;;25.13;52.44;100478.38;5094206;28;20112;-72
2023/10/04 09:39:23;;;;;;;5.13;2.33;;;;;;;25.12;51.16;100476.66;5094454;28;20463;-71
2023/10/04 09:41:50;;;;;;;5.40;1.98;;;;;;;25.12;51.36;100475.81;5093762;28;20468;-71
2023/10/04 09:44:26;;;;;;;5.32;2.08;;;;;;;25.12;50.80;100465.13;5094138;28;20073;-69
2023/10/04 09:46:59;;;;;;;5.07;2.10;;;;;;;25.11;51.19;100463.41;5094315;28;20043;-72
2023/10/04 09:49:32;;;;;;;4.85;2.22;;;;;;;25.10;48.99;100464.34;5094091;28;20028;-71
2023/10/04 09:52:02;;;;;;;7.47;1.92;;;;;;;25.09;49.15;100466.19;5092636;28;20024;-71
2023/10/04 09:54:28;;;;;;;4.88;2.13;;;;;;;25.07;49.49;100465.41;5093664;28;20107;-71
2023/10/04 09:56:54;;;;;;;5.13;2.15;;;;;;;25.08;50.58;100467.13;5093994;28;20455;-71
2023/10/04 09:59:21;;;;;;;3.55;1.55;;;;;;;25.09;49.22;100465.31;5093954;28;20024;-72
2023/10/04 10:01:57;;;;;;;5.35;2.00;;;;;;;25.06;47.43;100466.34;5093879;28;20024;-72
2023/10/04 10:04:29;;;;;;;;;;;;;;;25.05;46.23;100470.00;5094232;28;20051;-71
2023/10/04 10:07:11;;;;;;;4.13;1.80;;;;;;;25.03;46.44;100471.91;5093763;28;19954;-71
2023/10/04 10:09:57;;;;;;;3.65;1.83;;;;;;;25.02;45.95;100470.16;5093390;28;20044;-71
2023/10/04 10:12:23;;;;;;;3.70;1.73;;;;;;;24.99;45.09;100459.69;5079175;28;20055;-71
2023/10/04 10:14:49;;;;;;;4.45;2.05;;;;;;;24.98;43.62;100458.81;5093570;28;20028;-71
2023/10/04 10:17:19;;;;;;;3.95;2.00;;;;;;;24.96;44.25;100462.53;5092799;28;20048;-71
2023/10/04 10:19:46;;;;;;;4.10;1.80;;;;;;;24.94;44.41;100458.16;5093661;28;20028;-71
2023/10/04 10:22:15;;;;;;;4.57;1.90;;;;;;;24.95;44.22;100453.69;5093419;28;20065;-70
2023/10/04 10:25:03;;;;;;;3.60;1.58;;;;;;;24.94;43.72;100446.66;5093062;28;20035;-71
2023/10/04 10:27:29;;;;;;;3.80;1.92;;;;;;;24.92;44.18;100444.06;5080406;28;20036;-70
2023/10/04 10:30:02;;;;;;;4.40;1.80;;;;;;;24.93;44.77;100437.75;5093021;28;20129;-72
2023/10/04 10:32:28;;;;;;;4.05;2.00;;;;;;;24.96;44.37;100433.19;5092931;28;20121;-70
2023/10/04 10:35:07;;;;;;;4.57;1.70;;;;;;;24.93;44.18;100429.75;5093193;28;20024;-71
2023/10/04 10:37:38;;;;;;;3.60;1.65;;;;;;;24.93;44.42;100429.75;5093113;28;20024;-71
2023/10/04 10:40:08;;;;;;;3.47;1.48;;;;;;;24.94;44.43;100436.81;5089993;28;20081;-71
2023/10/04 10:43:09;;;;;;;2.83;1.40;;;;;;;24.93;43.05;100429.75;5093052;28;20051;-70
2023/10/04 10:45:34;;;;;;;4.63;1.65;;;;;;;24.92;42.47;100436.06;5092905;28;20023;-70
2023/10/04 10:48:01;;;;;;;3.70;1.58;;;;;;;24.96;43.96;100433.19;5093081;28;20107;-71
2023/10/04 10:50:34;;;;;;;3.20;1.60;;;;;;;24.93;43.07;100424.41;5093006;28;20046;-71
2023/10/04 10:53:10;;;;;;;3.80;1.55;;;;;;;24.93;43.90;100419.06;5092379;28;20111;-71
2023/10/04 10:55:38;;;;;;;3.08;1.52;;;;;;;24.95;46.16;100432.34;5092675;28;20430;-70
2023/10/04 10:58:04;;;;;;;3.10;1.60;;;;;;;24.97;46.95;100419.75;5092862;28;20031;-71
2023/10/04 11:00:33;;;;;;;3.42;1.60;;;;;;;24.99;47.64;100422.31;5092800;28;20016;-71
2023/10/04 11:02:59;;;;;;;4.25;1.85;;;;;;;24.99;48.08;100422.31;5080458;28;20040;-69
2023/10/04 11:05:26;;;;;;;4.53;1.77;;;;;;;25.02;47.66;100422.09;5091173;28;20024;-69
2023/10/04 11:07:54;;;;;;;3.45;1.60;;;;;;;25.02;48.27;100411.44;5092438;28;20059;-71
2023/10/04 11:10:20;;;;;;;4.78;1.90;;;;;;;25.00;48.52;100410.69;5092366;28;20028;-71
2023/10/04 11:13:03;;;;;;;3.67;1.42;;;;;;;24.99;47.99;100411.63;5092693;28;20032;-70
2023/10/04 11:15:28;;;;;;;3.55;1.50;;;;;;;24.98;48.74;100407.25;5092555;28;20044;-71
2023/10/04 11:17:54;;;;;;;4.03;1.67;;;;;;;24.99;48.42;100419.66;5092183;28;20529;-70
2023/10/04 11:20:21;;;;;;;3.83;1.85;;;;;;;24.99;48.53;100420.50;5092488;28;20107;-70
2023/10/04 11:22:49;;;;;;;5.13;1.70;;;;;;;24.99;48.69;100411.63;5092151;28;20043;-70
2023/10/04 11:25:15;;;;;;;4.57;1.65;;;;;;;24.98;48.99;100409.94;5092596;28;20042;-71
2023/10/04 11:27:46;;;;;;;3.88;1.70;;;;;;;24.99;48.99;100403.63;5092282;28;20028;-71
2023/10/04 11:30:27;;;;;;;4.25;1.77;;;;;;;24.99;49.09;100401.81;5092297;28;20107;-70
2023/10/04 11:32:52;;;;;;;3.47;1.40;;;;;;;24.99;49.05;100406.28;5091915;28;20117;-70